Time;durP1;ratioP1;P1;durP2;ratioP2;P2;SDS_P1;SDS_P2;PMS_P1;PMS_P2;Temp;Humidity;BMP_temperature;BMP_pressure;BME280_temperature;BME280_humidity;BME280_pressure;Samples;Min_cycle;Max_cycle;Signal;HPM_P1;HPM_P2
2022/12/14 00:00:32;;;;;;;;;;;-1.80;99.90;;;-3.04;97.79;95936.38;5034795;28;19952;-47
2022/12/14 00:02:57;;;;;;;;;;;-1.80;99.90;;;-3.06;99.99;95935.53;5033798;28;19921;-46
2022/12/14 00:05:23;;;;;;;;;;;-1.90;99.90;;;-3.09;100.00;95927.81;5031627;28;20368;-49
2022/12/14 00:07:48;;;;;;;;;;;-1.90;99.90;;;-3.07;100.00;95919.22;5034466;28;19994;-45
2022/12/14 00:10:14;;;;;;;;;;;-1.90;99.90;;;-3.07;99.08;95908.88;5034106;28;20312;-47
2022/12/14 00:12:40;;;;;;;;;;;-1.90;99.90;;;-3.08;97.54;95907.16;5034451;28;20755;-46
2022/12/14 00:15:06;;;;;;;;;;;-1.90;99.90;;;-3.03;96.10;95896.81;5035800;28;20029;-50
2022/12/14 00:17:31;;;;;;;;;;;-1.80;99.90;;;-3.07;95.78;95875.38;5034587;28;19913;-50
2022/12/14 00:19:57;;;;;;;;;;;-1.80;99.90;;;-2.99;95.89;95875.28;5027470;28;19921;-50
2022/12/14 00:22:22;;;;;;;;;;;-1.80;99.90;;;-3.03;95.66;95880.47;5028976;28;19955;-49
2022/12/14 00:24:48;;;;;;;;;;;-1.80;99.90;;;-3.05;95.76;95884.78;5033643;28;20361;-48
2022/12/14 00:27:14;;;;;;;;;;;-1.80;99.90;;;-3.16;95.98;95861.66;5019412;28;20450;-48
2022/12/14 00:29:39;;;;;;;;;;;-1.80;99.90;;;-2.96;96.47;95875.28;5027481;28;19920;-46
2022/12/14 00:32:05;;;;;;;;;;;-1.80;99.90;;;-3.04;97.01;95864.16;5025521;28;19960;-50
2022/12/14 00:34:30;;;;;;;;;;;-1.80;99.90;;;-3.04;97.29;95871.88;5026079;28;20088;-50
2022/12/14 00:36:56;;;;;;;;;;;-1.80;99.90;;;-3.02;97.43;95882.19;5033379;28;20311;-48
2022/12/14 00:39:22;;;;;;;;;;;-1.80;99.90;;;-3.15;95.82;95871.13;5022587;28;19921;-50
2022/12/14 00:41:47;;;;;;;;;;;-1.80;99.90;;;-3.09;96.22;95882.25;5023753;28;20103;-49
2022/12/14 00:44:13;;;;;;;;;;;-1.90;99.90;;;-3.07;96.55;95875.38;5016153;28;19917;-48
2022/12/14 00:46:39;;;;;;;;;;;-1.80;99.90;;;-3.06;96.76;95860.75;5020267;28;19916;-51
2022/12/14 00:49:04;;;;;;;;;;;-1.80;99.90;;;-3.06;96.56;95853.00;5021065;28;20372;-50
2022/12/14 00:51:30;;;;;;;;;;;-1.80;99.90;;;-3.03;96.68;95860.72;5025103;28;20285;-48
2022/12/14 00:53:55;;;;;;;;;;;-1.80;99.90;;;-3.05;96.37;95865.03;5026344;28;20396;-47
2022/12/14 00:56:21;;;;;;;;;;;-1.80;99.90;;;-3.10;98.09;95880.53;5026907;28;19924;-49
2022/12/14 00:58:53;;;;;;;;;;;-1.90;99.90;;;-3.12;97.63;95871.97;5034128;28;19928;-48
2022/12/14 01:01:19;;;;;;;;;;;-1.90;99.90;;;-3.07;98.16;95872.78;5028411;28;19920;-49
2022/12/14 01:03:45;;;;;;;;;;;-1.80;99.90;;;-3.03;98.17;95868.47;5029336;28;20134;-50
2022/12/14 01:06:15;;;;;;;;;;;-1.80;99.90;;;-2.99;98.72;95870.13;5029863;28;20260;-49
2022/12/14 01:08:41;;;;;;;;;;;-1.80;99.90;;;-3.02;98.45;95859.84;5025700;28;19916;-48
2022/12/14 01:11:07;;;;;;;;;;;-1.80;99.90;;;-3.08;98.64;95853.00;5032918;28;19917;-49
2022/12/14 01:13:34;;;;;;;;;;;-1.80;99.90;;;-2.95;98.38;95871.81;5029775;28;19913;-49
2022/12/14 01:16:08;;;;;;;;;;;-1.70;99.90;;;-3.00;98.50;95862.41;5032570;28;19967;-50
2022/12/14 01:18:35;;;;;;;;;;;-1.80;99.90;;;-2.92;98.42;95858.03;5026708;28;19931;-49
2022/12/14 01:21:18;;;;;;;;;;;-1.70;99.90;;;-2.87;98.24;95871.75;5029052;28;19916;-49
2022/12/14 01:23:45;;;;;;;;;;;-1.70;99.90;;;-3.01;98.45;95833.19;5033095;28;20012;-50
2022/12/14 01:26:12;;;;;;;;;;;-1.70;99.90;;;-2.84;98.61;95847.66;5025427;28;19959;-49
2022/12/14 01:28:38;;;;;;;;;;;-1.70;99.90;;;-2.77;98.93;95851.88;5024389;28;19947;-47
2022/12/14 01:31:12;;;;;;;;;;;-1.60;99.90;;;-2.82;98.85;95861.38;5034004;28;19967;-51
2022/12/14 01:33:38;;;;;;;;;;;-1.70;99.90;;;-2.84;99.17;95863.13;5037883;28;19920;-46
2022/12/14 01:36:09;;;;;;;;;;;-1.60;99.90;;;-2.80;99.54;95869.97;5033858;28;19974;-47
2022/12/14 01:38:34;;;;;;;;;;;-1.60;99.90;;;-2.86;100.00;95870.88;5028016;28;19924;-46
2022/12/14 01:41:00;;;;;;;;;;;-1.60;99.90;;;-2.90;100.00;95872.63;5019299;28;19920;-51
2022/12/14 01:43:50;;;;;;;;;;;-1.70;99.90;;;-2.85;100.00;95879.47;5016804;28;20380;-50
2022/12/14 01:46:21;;;;;;;;;;;-1.70;99.90;;;-2.81;100.00;95876.00;5017584;28;19977;-49
2022/12/14 01:48:47;;;;;;;;;;;-1.60;99.90;;;-2.78;100.00;95871.69;5027000;28;20285;-50
2022/12/14 01:51:13;;;;;;;;;;;-1.60;99.90;;;-2.79;100.00;95859.63;5031735;28;20442;-47
2022/12/14 01:53:39;;;;;;;;;;;-1.60;99.90;;;-2.76;100.00;95858.75;5037683;28;19916;-50
2022/12/14 01:56:05;;;;;;;;;;;-1.60;99.90;;;-2.76;100.00;95838.97;5020122;28;20752;-47
2022/12/14 01:58:32;;;;;;;;;;;-1.60;99.90;;;-2.75;99.85;95842.41;5022807;28;20218;-48
2022/12/14 02:00:58;;;;;;;;;;;-1.60;99.90;;;-2.77;99.37;95828.66;5021432;28;19931;-48
2022/12/14 02:03:27;;;;;;;;;;;-1.60;99.90;;;-2.75;98.31;95830.34;5019520;28;20375;-46
2022/12/14 02:05:57;;;;;;;;;;;-1.50;99.90;;;-2.77;98.30;95832.09;5013849;28;19921;-48
2022/12/14 02:08:23;;;;;;;;;;;-1.60;99.90;;;-2.86;98.57;95814.13;5025092;28;19952;-50
2022/12/14 02:10:49;;;;;;;;;;;-1.50;99.90;;;-2.90;97.69;95802.13;5020194;28;19928;-51
2022/12/14 02:13:18;;;;;;;;;;;-1.60;99.90;;;-2.72;98.03;95832.91;5025688;28;19963;-50
2022/12/14 02:15:44;;;;;;;;;;;-1.50;99.90;;;-2.74;98.05;95832.06;5025391;28;19921;-50
2022/12/14 02:18:14;;;;;;;;;;;-1.60;99.90;;;-2.78;98.11;95821.78;5035268;28;20027;-48
2022/12/14 02:21:05;;;;;;;;;;;-1.50;99.90;;;-2.79;98.05;95831.25;5034346;28;20407;-51
2022/12/14 02:24:04;;;;;;;;;;;-1.60;99.90;;;-2.77;98.15;95815.75;5030238;28;19917;-49
2022/12/14 02:26:57;;;;;;;;;;;-1.60;99.90;;;-2.71;97.69;95805.34;5025138;28;19923;-47
2022/12/14 02:29:29;;;;;;;;;;;-1.60;99.90;;;-2.76;97.62;95786.53;5023407;28;19923;-48
2022/12/14 02:32:20;;;;;;;;;;;-1.50;99.90;;;-2.71;97.46;95810.53;5021922;28;19921;-49
2022/12/14 02:34:53;;;;;;;;;;;-1.50;99.90;;;-2.70;98.57;95818.25;5022282;28;19924;-49
2022/12/14 02:37:27;;;;;;;;;;;-1.50;99.90;;;-2.81;98.68;95789.13;5028936;28;19987;-46
2022/12/14 02:40:18;;;;;;;;;;;-1.50;99.90;;;-2.71;99.25;95813.97;5039058;28;19920;-50
2022/12/14 02:43:04;;;;;;;;;;;-1.50;99.90;;;-2.72;99.22;95824.31;5016446;28;19924;-46
2022/12/14 02:45:51;;;;;;;;;;;-1.50;99.90;;;-2.71;99.61;95813.97;5018587;28;19921;-49
2022/12/14 02:48:22;;;;;;;;;;;-1.50;99.90;;;-2.71;100.00;95803.66;5016638;28;19920;-50
2022/12/14 02:51:00;;;;;;;;;;;-1.50;99.90;;;-2.70;100.00;95807.09;5034664;28;20277;-50
2022/12/14 02:53:32;;;;;;;;;;;-1.50;99.90;;;-2.77;100.00;95795.13;5029750;28;19923;-48
2022/12/14 02:56:02;;;;;;;;;;;-1.50;99.90;;;-2.71;99.91;95795.91;5020034;28;20402;-49
2022/12/14 02:58:34;;;;;;;;;;;-1.50;99.90;;;-2.72;100.00;95786.44;5016499;28;20691;-50
2022/12/14 03:00:59;;;;;;;;;;;-1.50;99.90;;;-2.69;99.46;95785.59;5034737;28;19974;-47
2022/12/14 03:03:25;;;;;;;;;;;-1.50;99.90;;;-2.67;99.96;95785.53;5018751;28;19920;-48
2022/12/14 03:05:56;;;;;;;;;;;-1.50;99.90;;;-2.69;100.00;95777.84;5018542;28;20388;-50
2022/12/14 03:08:23;;;;;;;;;;;-1.50;99.90;;;-2.72;100.00;95781.28;5020114;28;19917;-47
2022/12/14 03:10:57;;;;;;;;;;;-1.50;99.90;;;-2.68;100.00;95774.38;5004762;28;19967;-50
2022/12/14 03:13:28;;;;;;;;;;;-1.50;99.90;;;-2.62;100.00;95781.19;5029042;28;19974;-50
2022/12/14 03:16:12;;;;;;;;;;;-1.50;99.90;;;-2.61;100.00;95775.16;5028457;28;19921;-49
2022/12/14 03:18:40;;;;;;;;;;;-1.40;99.90;;;-2.62;100.00;95757.97;5025385;28;19912;-50
2022/12/14 03:21:09;;;;;;;;;;;-1.40;99.90;;;-2.59;100.00;95760.50;5034418;28;20237;-50
2022/12/14 03:23:37;;;;;;;;;;;-1.40;99.90;;;-2.60;100.00;95771.69;5025070;28;20064;-48
2022/12/14 03:26:32;;;;;;;;;;;-1.40;99.90;;;-2.57;100.00;95774.25;5020410;28;19920;-49
2022/12/14 03:29:06;;;;;;;;;;;-1.40;99.90;;;-2.61;100.00;95765.69;5021079;28;20027;-48
2022/12/14 03:31:37;;;;;;;;;;;-1.40;99.90;;;-2.49;100.00;95769.88;5041355;28;21358;-49
2022/12/14 03:34:04;;;;;;;;;;;-1.40;99.90;;;-2.57;100.00;95762.19;5021453;28;23223;-50
2022/12/14 03:36:37;;;;;;;;;;;-1.40;99.90;;;-2.54;100.00;95758.72;5018332;28;20008;-51
2022/12/14 03:39:05;;;;;;;;;;;-1.40;99.90;;;-2.59;100.00;95752.78;5022574;28;19920;-50
2022/12/14 03:41:45;;;;;;;;;;;-1.40;99.90;;;-2.60;100.00;95757.09;5027101;28;19967;-50
2022/12/14 03:44:20;;;;;;;;;;;-1.40;99.90;;;-2.60;100.00;95751.03;5026089;28;20649;-48
2022/12/14 03:46:55;;;;;;;;;;;-1.40;99.90;;;-2.65;100.00;95739.94;5019711;28;19920;-49
2022/12/14 03:49:33;;;;;;;;;;;-1.40;99.90;;;-2.64;100.00;95737.31;5026976;28;19925;-49
2022/12/14 03:52:07;;;;;;;;;;;-1.40;99.90;;;-2.61;100.00;95734.72;5023574;28;20093;-47
2022/12/14 03:54:56;;;;;;;;;;;-1.50;99.90;;;-2.63;100.00;95733.03;5028239;28;20023;-46
2022/12/14 03:58:00;;;;;;;;;;;-1.50;99.90;;;-2.64;100.00;95737.31;5027722;28;19970;-49
2022/12/14 04:00:29;;;;;;;;;;;-1.50;99.90;;;-2.65;100.00;95733.06;5021522;28;20015;-48
2022/12/14 04:03:15;;;;;;;;;;;-1.50;99.90;;;-2.63;100.00;95726.16;5026976;28;19913;-51
2022/12/14 04:06:03;;;;;;;;;;;-1.50;99.90;;;-2.60;100.00;95704.59;5040162;28;19912;-49
2022/12/14 04:08:44;;;;;;;;;;;-1.40;99.90;;;-2.55;100.00;95706.28;5015816;28;20016;-48
2022/12/14 04:19:38;;;;;;;;;;;-1.30;99.90;;;-2.55;100.00;95692.50;5022433;28;19954;-47
2022/12/14 04:22:12;;;;;;;;;;;-1.40;99.90;;;-2.61;100.00;95690.84;5021702;28;20050;-49
2022/12/14 04:27:34;;;;;;;;;;;-1.40;99.90;;;-2.65;100.00;95681.44;5029348;28;19932;-51
2022/12/14 04:30:00;;;;;;;;;;;-1.40;99.90;;;-2.63;100.00;95673.69;5018511;28;19925;-51
2022/12/14 04:32:59;;;;;;;;;;;-1.40;99.90;;;-2.76;100.00;95657.50;5019731;28;19942;-48
2022/12/14 04:35:32;;;;;;;;;;;-1.40;99.90;;;-2.57;100.00;95668.44;5024491;28;19975;-49
2022/12/14 04:38:03;;;;;;;;;;;-1.40;99.90;;;-2.58;100.00;95661.59;5047148;22;19928;-49
2022/12/14 04:40:36;;;;;;;;;;;-1.40;99.90;;;-2.59;100.00;95660.72;5036843;28;19913;-47
2022/12/14 04:43:07;;;;;;;;;;;-1.40;99.90;;;-2.60;100.00;95668.47;5029871;28;19912;-49
2022/12/14 04:45:41;;;;;;;;;;;-1.40;99.90;;;-2.60;100.00;95666.75;5031351;28;20426;-47
2022/12/14 04:48:22;;;;;;;;;;;-1.40;99.90;;;-2.60;100.00;95682.25;5024720;28;20389;-48
2022/12/14 04:50:53;;;;;;;;;;;-1.40;99.90;;;-2.56;100.00;95671.00;5018950;28;19919;-48
2022/12/14 04:53:24;;;;;;;;;;;-1.40;99.90;;;-2.54;100.00;95665.81;5026857;28;19921;-48
2022/12/14 04:55:55;;;;;;;;;;;-1.40;99.90;;;-2.51;100.00;95666.63;5016491;28;19958;-47
2022/12/14 04:58:25;;;;;;;;;;;-1.40;99.90;;;-2.48;100.00;95664.88;5001291;28;19921;-48
2022/12/14 05:01:03;;;;;;;;;;;-1.30;99.90;;;-2.44;100.00;95659.66;4992882;28;19924;-48
2022/12/14 05:03:32;;;;;;;;;;;-1.30;99.90;;;-2.39;100.00;95646.66;4997605;28;20014;-46
2022/12/14 05:06:22;;;;;;;;;;;-1.30;99.90;;;-2.32;100.00;95656.03;5006244;28;20380;-47
2022/12/14 05:09:33;;;;;;;;;;;-1.20;99.90;;;-2.31;100.00;95652.59;4993347;28;19921;-47
2022/12/14 05:12:04;;;;;;;;;;;-1.20;99.90;;;-2.32;100.00;95651.72;4990795;28;19932;-47
2022/12/14 05:14:49;;;;;;;;;;;-1.20;99.90;;;-2.32;100.00;95661.19;5001190;28;19921;-48
2022/12/14 05:17:15;;;;;;;;;;;-1.20;99.90;;;-2.33;100.00;95650.03;5000064;28;19913;-48
2022/12/14 05:19:45;;;;;;;;;;;-1.20;99.90;;;-2.26;100.00;95655.97;5005541;28;20319;-49
2022/12/14 05:22:11;;;;;;;;;;;-1.20;99.90;;;-2.24;100.00;95646.47;4999297;28;20530;-48
2022/12/14 05:24:36;;;;;;;;;;;-1.10;99.90;;;-2.20;100.00;95642.09;5018466;28;20653;-47
2022/12/14 05:27:02;;;;;;;;;;;-1.10;99.90;;;-2.17;100.00;95644.63;4996965;28;20335;-48
2022/12/14 05:29:28;;;;;;;;;;;-1.10;99.90;;;-2.14;100.00;95653.16;4998737;28;19913;-47
2022/12/14 05:31:53;;;;;;;;;;;-1.00;99.90;;;-2.11;100.00;95642.81;4999238;28;19928;-47
2022/12/14 05:34:19;;;;;;;;;;;-1.00;99.90;;;-2.08;100.00;95643.63;5013840;28;20037;-47
2022/12/14 05:36:45;;;;;;;;;;;-1.00;99.90;;;-2.10;100.00;95622.97;4996360;28;19972;-50
2022/12/14 05:39:11;;;;;;;;;;;-0.90;99.90;;;-2.10;100.00;95643.66;5000407;28;19929;-46
2022/12/14 05:41:36;;;;;;;;;;;-0.90;99.90;;;-2.14;100.00;95631.66;4992410;28;19979;-46
2022/12/14 05:44:02;;;;;;;;;;;-1.00;99.90;;;-2.13;100.00;95641.97;4988658;28;20635;-47
2022/12/14 05:46:28;;;;;;;;;;;-1.00;99.90;;;-2.11;100.00;95647.97;4982851;28;19930;-48
2022/12/14 05:48:54;;;;;;;;;;;-1.00;99.90;;;-2.07;100.00;95628.09;4993049;28;19927;-49
2022/12/14 05:51:19;;;;;;;;;;;-1.00;99.90;;;-2.12;100.00;95624.75;5001481;28;19922;-46
2022/12/14 05:53:45;;;;;;;;;;;-1.00;99.90;;;-2.14;100.00;95616.16;5005983;28;19968;-47
2022/12/14 05:56:11;;;;;;;;;;;-1.00;99.90;;;-2.19;100.00;95613.69;5005902;28;20003;-47
2022/12/14 05:58:37;;;;;;;;;;;-1.00;99.90;;;-2.15;100.00;95610.16;5002051;28;19921;-47
2022/12/14 06:01:05;;;;;;;;;;;-1.00;99.90;;;-2.15;100.00;95610.16;5004018;28;19921;-48
2022/12/14 06:03:30;;;;;;;;;;;-1.00;99.90;;;-2.17;100.00;95600.72;5007851;28;19978;-50
2022/12/14 06:06:01;;;;;;;;;;;-1.00;99.90;;;-2.20;100.00;95590.47;5011739;28;19917;-47
2022/12/14 06:08:30;;;;;;;;;;;-1.00;99.90;;;-2.18;100.00;95593.88;5015232;28;20400;-47
2022/12/14 06:11:07;;;;;;;;;;;-1.00;99.90;;;-2.21;100.00;95594.75;5014121;28;19920;-48
2022/12/14 06:13:37;;;;;;;;;;;-1.10;99.90;;;-2.20;100.00;95609.38;5006038;28;19966;-48
2022/12/14 06:16:07;;;;;;;;;;;-1.10;99.90;;;-2.18;100.00;95601.59;5011834;28;19928;-48
2022/12/14 06:18:32;;;;;;;;;;;-1.10;99.90;;;-2.28;100.00;95580.22;5008999;28;20009;-52
2022/12/14 06:20:58;;;;;;;;;;;-1.10;99.90;;;-2.12;100.00;95596.34;5017625;28;20249;-49
2022/12/14 06:23:24;;;;;;;;;;;-1.00;99.90;;;-2.18;100.00;95602.44;5015083;28;19923;-47
2022/12/14 06:25:54;;;;;;;;;;;-1.00;99.90;;;-2.21;100.00;95604.22;5016049;28;20285;-49
2022/12/14 06:28:20;;;;;;;;;;;-1.00;99.90;;;-2.26;100.00;95604.31;5010488;28;19956;-48
2022/12/14 06:30:47;;;;;;;;;;;-1.10;99.90;;;-2.28;100.00;95606.06;5013641;28;19917;-52
2022/12/14 06:33:12;;;;;;;;;;;-1.10;99.90;;;-2.25;100.00;95608.59;5021259;28;19920;-50
2022/12/14 06:35:43;;;;;;;;;;;-1.10;99.90;;;-2.24;100.00;95605.16;5020216;28;19941;-50
2022/12/14 06:38:10;;;;;;;;;;;-1.10;99.90;;;-2.23;100.00;95595.66;5023525;28;20019;-49
2022/12/14 06:40:36;;;;;;;;;;;-1.10;99.90;;;-2.23;100.00;95591.34;5009751;28;20036;-50
2022/12/14 06:43:02;;;;;;;;;;;-1.10;99.90;;;-2.24;100.00;95581.91;5008815;28;19932;-48
2022/12/14 06:45:28;;;;;;;;;;;-1.10;99.90;;;-2.26;100.00;95581.09;5008720;28;19928;-53
2022/12/14 06:47:54;;;;;;;;;;;-1.10;99.90;;;-2.27;100.00;95570.78;5017935;28;20392;-52
2022/12/14 06:50:19;;;;;;;;;;;-1.10;99.90;;;-2.29;100.00;95581.13;5013606;28;20003;-48
2022/12/14 06:52:48;;;;;;;;;;;-1.20;99.90;;;-2.34;100.00;95568.28;5013140;28;20062;-47
2022/12/14 06:55:14;;;;;;;;;;;-1.20;99.90;;;-2.36;100.00;95564.03;5012180;28;19920;-49
2022/12/14 06:57:40;;;;;;;;;;;-1.20;99.90;;;-2.37;100.00;95558.00;5012959;28;19913;-50
2022/12/14 07:00:07;;;;;;;;;;;-1.20;99.90;;;-2.38;100.00;95550.28;5013156;28;19919;-47
2022/12/14 07:02:33;;;;;;;;;;;-1.20;99.90;;;-2.38;100.00;95555.47;5021773;28;19928;-48
2022/12/14 07:04:59;;;;;;;;;;;-1.30;99.90;;;-2.37;100.00;95563.19;5010439;28;20304;-52
2022/12/14 07:07:25;;;;;;;;;;;-1.20;99.90;;;-2.36;100.00;95544.22;5018966;28;19917;-50
2022/12/14 07:09:50;;;;;;;;;;;-1.30;99.90;;;-2.36;100.00;95541.63;5024774;28;19909;-49
2022/12/14 07:12:16;;;;;;;;;;;-1.20;99.90;;;-2.33;100.00;95543.31;5011547;28;20298;-49
2022/12/14 07:14:42;;;;;;;;;;;-1.20;99.90;;;-2.32;100.00;95540.69;5017824;28;20306;-48
2022/12/14 07:17:07;;;;;;;;;;;-1.20;99.90;;;-2.29;100.00;95542.41;5015202;28;20081;-49
2022/12/14 07:19:33;;;;;;;;;;;-1.20;99.90;;;-2.31;100.00;95532.09;5014439;28;19921;-54
2022/12/14 07:22:02;;;;;;;;;;;-1.20;99.90;;;-2.25;100.00;95525.13;5011476;28;19921;-50
2022/12/14 07:24:29;;;;;;;;;;;-1.10;99.90;;;-2.32;100.00;95520.03;5019310;28;19917;-48
2022/12/14 07:26:55;;;;;;;;;;;-1.10;99.90;;;-2.35;100.00;95530.44;5014065;28;19943;-48
2022/12/14 07:29:21;;;;;;;;;;;-1.20;99.90;;;-2.37;100.00;95523.59;5008277;28;19913;-51
2022/12/14 07:31:47;;;;;;;;;;;-1.20;99.90;;;-2.34;100.00;95520.97;5016576;28;19924;-47
2022/12/14 07:34:13;;;;;;;;;;;-1.20;99.90;;;-2.32;100.00;95526.94;5016777;28;19990;-49
2022/12/14 07:36:38;;;;;;;;;;;-1.20;99.90;;;-2.26;100.00;95518.25;5018956;28;19913;-51
2022/12/14 07:39:04;;;;;;;;;;;-1.10;99.90;;;-2.23;100.00;95519.03;5016835;28;19917;-50
2022/12/14 07:41:30;;;;;;;;;;;-1.10;99.90;;;-2.19;100.00;95517.25;5012371;28;19920;-49
2022/12/14 07:43:58;;;;;;;;;;;-1.10;99.90;;;-2.14;100.00;95513.72;5018555;28;19916;-49
2022/12/14 07:46:25;;;;;;;;;;;-1.00;99.90;;;-2.15;100.00;95512.03;5019097;28;19929;-49
2022/12/14 07:48:53;;;;;;;;;;;-1.00;99.90;;;-2.03;100.00;95510.94;5021854;28;19918;-48
2022/12/14 07:51:21;;;;;;;;;;;-0.90;99.90;;;-1.98;100.00;95514.28;5013222;28;19913;-50
2022/12/14 07:53:47;;;;;;;;;;;-0.90;99.90;;;-1.95;100.00;95500.50;5016167;28;20215;-47
2022/12/14 07:56:15;;;;;;;;;;;-0.80;99.90;;;-1.89;100.00;95509.84;5015921;28;20254;-48
2022/12/14 07:58:41;;;;;;;;;;;-0.80;99.90;;;-1.86;100.00;95502.91;5017221;28;20238;-49
2022/12/14 08:01:28;;;;;;;;;;;-0.70;99.90;;;-1.80;100.00;95492.44;5020733;28;20316;-49
2022/12/14 08:03:58;;;;;;;;;;;-0.70;99.90;;;-1.78;100.00;95495.00;5011284;28;19921;-49
2022/12/14 08:06:26;;;;;;;;;;;-0.70;99.90;;;-1.82;100.00;95493.34;5009375;28;20332;-48
2022/12/14 08:08:52;;;;;;;;;;;-0.70;99.90;;;-1.79;100.00;95494.16;5012453;28;19913;-51
2022/12/14 08:11:21;;;;;;;;;;;-0.70;99.90;;;-1.78;100.00;95489.81;5016974;28;20076;-48
2022/12/14 08:13:47;;;;;;;;;;;-0.70;99.90;;;-1.69;100.00;95488.78;5013703;28;20000;-50
2022/12/14 08:16:14;;;;;;;;;;;-0.60;99.90;;;-1.64;100.00;95495.56;5030987;28;19921;-47
2022/12/14 08:18:41;;;;;;;;;;;-0.50;99.90;;;-1.57;100.00;95488.56;5013477;28;19942;-47
2022/12/14 08:21:08;;;;;;;;;;;-0.50;99.90;;;-1.50;100.00;95490.13;5028179;28;20373;-47
2022/12/14 08:23:34;;;;;;;;;;;-0.40;99.90;;;-1.45;100.00;95485.72;5009721;28;19925;-49
2022/12/14 08:26:01;;;;;;;;;;;-0.40;99.90;;;-1.44;100.00;95487.41;5013846;28;19917;-48
2022/12/14 08:28:28;;;;;;;;;;;-0.30;99.90;;;-1.41;100.00;95477.00;5020337;28;20324;-51
2022/12/14 08:30:54;;;;;;;;;;;-0.30;99.90;;;-1.34;100.00;95477.75;5011800;28;20389;-49
2022/12/14 08:33:20;;;;;;;;;;;-0.30;99.90;;;-1.26;100.00;95477.56;5014341;28;19932;-47
2022/12/14 08:35:46;;;;;;;;;;;-0.20;99.90;;;-1.16;100.00;95481.66;5020100;28;20216;-47
2022/12/14 08:38:12;;;;;;;;;;;-0.10;99.90;;;-1.04;100.00;95493.47;5020503;28;20218;-48
2022/12/14 08:40:38;;;;;;;;;;;0.10;99.90;;;-0.96;100.00;95501.94;5014677;28;19920;-50
2022/12/14 08:43:05;;;;;;;;;;;0.10;99.90;;;-0.93;100.00;95504.47;5014485;28;19952;-49
2022/12/14 08:45:30;;;;;;;;;;;0.10;99.90;;;-0.98;100.00;95516.63;5012831;28;20008;-48
2022/12/14 08:47:57;;;;;;;;;;;0.10;99.90;;;-1.11;100.00;95503.13;5019577;28;19929;-47
2022/12/14 08:50:23;;;;;;;;;;;0.00;99.90;;;-1.14;100.00;95503.19;5016170;28;19917;-48
2022/12/14 08:52:49;;;;;;;;;;;0.00;99.90;;;-1.23;100.00;95491.28;5018144;28;19948;-49
2022/12/14 08:55:14;;;;;;;;;;;-0.10;99.90;;;-1.28;100.00;95484.53;5011917;28;20385;-50
2022/12/14 08:57:40;;;;;;;;;;;-0.20;99.90;;;-1.39;100.00;95462.31;5012055;28;19920;-48
2022/12/14 09:00:08;;;;;;;;;;;-0.10;99.90;;;-1.15;100.00;95493.69;5015939;28;20331;-47
2022/12/14 09:02:34;;;;;;;;;;;0.00;99.90;;;-1.08;100.00;95489.25;5019554;28;19955;-49
2022/12/14 09:05:00;;;;;;;;;;;0.00;99.90;;;-1.00;100.00;95484.78;5017998;28;19917;-48
2022/12/14 09:07:26;;;;;;;;;;;0.10;99.90;;;-0.90;100.00;95482.81;5019690;28;20637;-48
2022/12/14 09:09:52;;;;;;;;;;;0.20;99.90;;;-0.83;100.00;95492.16;5018625;28;19920;-49
2022/12/14 09:12:18;;;;;;;;;;;0.20;99.90;;;-0.79;100.00;95493.78;5016137;28;19917;-51
2022/12/14 09:14:45;;;;;;;;;;;0.30;99.90;;;-0.78;100.00;95492.91;5010840;28;20216;-49
2022/12/14 09:17:11;;;;;;;;;;;0.30;99.90;;;-0.81;100.00;95492.97;5032446;28;19923;-49
2022/12/14 09:19:37;;;;;;;;;;;0.30;99.90;;;-0.79;100.00;95496.34;5020029;28;20384;-53
2022/12/14 09:22:03;;;;;;;;;;;0.30;99.90;;;-0.85;100.00;95489.59;5010038;28;19924;-50
2022/12/14 09:24:28;;;;;;;;;;;0.30;99.90;;;-0.88;100.00;95487.09;5016353;28;19939;-51
2022/12/14 09:26:54;;;;;;;;;;;0.20;99.90;;;-0.87;100.00;95480.16;5029037;28;20044;-53
2022/12/14 09:29:20;;;;;;;;;;;0.20;99.90;;;-0.88;100.00;95476.75;5015601;28;19916;-52
2022/12/14 09:31:45;;;;;;;;;;;0.20;99.90;;;-0.94;100.00;95476.03;5016416;28;19917;-48
2022/12/14 09:34:11;;;;;;;;;;;0.10;99.90;;;-1.02;100.00;95477.03;5012212;28;20028;-49
2022/12/14 09:36:37;;;;;;;;;;;0.10;99.90;;;-1.09;100.00;95475.47;5014435;28;19976;-48
2022/12/14 09:39:02;;;;;;;;;;;0.10;99.90;;;-1.09;100.00;95470.31;5019357;28;19921;-49
2022/12/14 09:41:34;;;;;;;;;;;0.00;99.90;;;-1.08;100.00;95461.66;5011821;28;19921;-48
2022/12/14 09:44:18;;;;;;;;;;;0.00;99.90;;;-1.11;100.00;95455.69;5011968;28;20379;-48
2022/12/14 09:47:05;;;;;;;;;;;0.00;99.90;;;-1.05;100.00;95465.91;5010208;28;19917;-48
2022/12/14 09:49:32;;;;;;;;;;;0.00;99.90;;;-1.03;100.00;95470.16;5015765;28;19917;-49
2022/12/14 09:52:00;;;;;;;;;;;0.10;99.90;;;-1.08;100.00;95471.16;5014737;28;20372;-51
2022/12/14 09:54:32;;;;;;;;;;;0.10;99.90;;;-1.11;100.00;95474.66;5011712;28;19924;-50
2022/12/14 09:57:01;;;;;;;;;;;0.00;99.90;;;-1.16;100.00;95472.16;5015163;28;20000;-48
2022/12/14 09:59:28;;;;;;;;;;;0.00;99.90;;;-1.21;100.00;95455.91;5018242;28;19924;-50
2022/12/14 10:02:18;;;;;;;;;;;-0.10;99.90;;;-1.21;100.00;95455.91;5014391;28;19921;-50
2022/12/14 10:04:56;;;;;;;;;;;-0.10;99.90;;;-1.24;100.00;95466.31;5026590;28;19913;-47
2022/12/14 10:07:46;;;;;;;;;;;-0.10;99.90;;;-1.25;100.00;95463.78;5022960;28;20395;-50
2022/12/14 10:10:32;;;;;;;;;;;-0.10;99.90;;;-1.30;100.00;95458.69;5025142;28;20011;-48
2022/12/14 10:13:40;;;;;;;;;;;-0.20;99.90;;;-1.32;100.00;95457.03;5016443;28;19917;-47
2022/12/14 10:16:40;;;;;;;;;;;-0.20;99.90;;;-1.24;100.00;95460.28;4978031;28;20150;-48
2022/12/14 10:19:21;;;;;;;;;;;-0.20;99.90;;;-1.17;100.00;95467.03;4989468;28;19913;-50
2022/12/14 10:21:54;;;;;;;;;;;-0.10;99.90;;;-1.14;100.00;95456.63;5009528;28;19931;-47
2022/12/14 10:24:34;;;;;;;;;;;-0.10;99.90;;;-1.13;100.00;95450.56;5017232;28;19924;-47
2022/12/14 10:27:00;;;;;;;;;;;0.00;99.90;;;-1.12;100.00;95446.25;5015495;28;19960;-48
2022/12/14 10:29:33;;;;;;;;;;;0.00;99.90;;;-1.18;100.00;95431.72;5029298;28;20396;-48
2022/12/14 10:32:16;;;;;;;;;;;0.00;99.90;;;-1.04;100.00;95441.72;5013693;28;19913;-48
2022/12/14 10:34:42;;;;;;;;;;;0.00;99.90;;;-0.97;100.00;95443.28;5014819;28;19913;-47
2022/12/14 10:37:25;;;;;;;;;;;0.00;99.90;;;-0.90;100.00;95446.59;5030905;22;19973;-47
2022/12/14 10:40:27;;;;;;;;;;;0.10;99.90;;;-0.85;100.00;95442.16;5056692;28;19931;-49
2022/12/14 10:43:02;;;;;;;;;;;0.20;99.90;;;-0.84;100.00;95444.72;4996486;28;19951;-50
2022/12/14 10:45:40;;;;;;;;;;;0.30;99.90;;;-0.81;100.00;95442.06;5031307;28;19924;-48
2022/12/14 10:48:36;;;;;;;;;;;0.20;99.90;;;-0.76;100.00;95431.59;5024578;28;20317;-50
2022/12/14 10:51:23;;;;;;;;;;;0.30;99.90;;;-0.71;100.00;95421.13;5016269;28;19982;-51
2022/12/14 10:53:56;;;;;;;;;;;0.30;99.90;;;-0.82;100.00;95406.72;5029141;28;19924;-48
2022/12/14 10:56:26;;;;;;;;;;;0.40;99.90;;;-0.60;100.00;95427.72;5031630;28;20372;-48
2022/12/14 10:59:10;;;;;;;;;;;0.40;99.90;;;-0.54;100.00;95423.28;5032588;28;19924;-50
2022/12/14 11:01:36;;;;;;;;;;;0.50;99.90;;;-0.54;100.00;95421.53;5035611;28;20546;-49
2022/12/14 11:04:01;;;;;;;;;;;0.50;99.90;;;-0.40;100.00;95432.41;5038630;28;20007;-47
2022/12/14 11:06:27;;;;;;;;;;;0.60;99.90;;;-0.30;100.00;95435.63;5019399;28;19999;-45
2022/12/14 11:08:54;;;;;;;;;;;0.70;99.90;;;-0.15;100.00;95436.13;5019187;28;20239;-47
2022/12/14 11:11:22;;;;;;;;;;;0.90;99.90;;;-0.12;100.00;95428.28;5036808;28;19913;-45
2022/12/14 11:13:53;;;;;;;;;;;1.00;99.90;;;0.00;100.00;95425.34;5031927;28;19924;-46
2022/12/14 11:16:33;;;;;;;;;;;1.00;99.90;;;-0.11;100.00;95397.13;5030866;28;20301;-45
2022/12/14 11:19:00;;;;;;;;;;;1.10;99.90;;;-0.01;100.00;95426.25;5040905;28;19913;-45
2022/12/14 11:21:35;;;;;;;;;;;1.00;99.90;;;-0.03;100.00;95420.25;5034661;28;19936;-45
2022/12/14 11:24:02;;;;;;;;;;;1.00;99.90;;;-0.06;100.00;95428.94;5041730;28;19939;-45
2022/12/14 11:26:39;;;;;;;;;;;1.00;99.90;;;-0.12;100.00;95433.47;5021826;28;19927;-48
2022/12/14 11:29:29;;;;;;;;;;;0.90;99.90;;;-0.24;100.00;95432.88;5040526;28;19947;-45
2022/12/14 11:31:55;;;;;;;;;;;0.80;99.90;;;-0.29;100.00;95437.31;5025132;28;20347;-47
2022/12/14 11:34:34;;;;;;;;;;;0.70;99.90;;;-0.33;100.00;95429.69;5023573;28;19919;-46
2022/12/14 11:37:19;;;;;;;;;;;0.70;99.90;;;-0.22;100.00;95420.72;5025149;28;19921;-44
2022/12/14 11:39:49;;;;;;;;;;;0.80;99.90;;;-0.06;100.00;95420.31;5033004;28;20381;-48